Time;durP1;ratioP1;P1;durP2;ratioP2;P2;SDS_P1;SDS_P2;PMS_P1;PMS_P2;Temp;Humidity;BMP_temperature;BMP_pressure;BME280_temperature;BME280_humidity;BME280_pressure;Samples;Min_cycle;Max_cycle;Signal;HPM_P1;HPM_P2
2020/12/23 00:00:29;;;;;;;1.85;0.80;;;;;;;11.92;85.28;98899.75;5067230;28;20570;-74
2020/12/23 00:02:54;;;;;;;0.95;0.43;;;;;;;11.94;84.93;98897.66;5057985;28;20037;-72
2020/12/23 00:05:19;;;;;;;0.82;0.45;;;;;;;12.00;85.15;98899.53;5053607;28;20413;-74
2020/12/23 00:07:45;;;;;;;0.85;0.50;;;;;;;11.97;84.96;98904.53;5068255;28;20062;-74
2020/12/23 00:10:11;;;;;;;0.75;0.50;;;;;;;11.89;85.28;98891.19;5062258;28;20029;-74
2020/12/23 00:12:37;;;;;;;1.55;0.70;;;;;;;11.92;84.85;98886.19;5052522;28;20068;-74
2020/12/23 00:15:05;;;;;;;0.82;0.40;;;;;;;11.96;84.86;98892.03;5052250;28;20028;-74
2020/12/23 00:17:30;;;;;;;1.67;0.55;;;;;;;11.96;84.95;98890.16;5052512;28;20031;-74
2020/12/23 00:19:56;;;;;;;0.50;0.50;;;;;;;12.04;84.40;98879.06;5064574;28;20028;-74
2020/12/23 00:22:21;;;;;;;1.25;0.60;;;;;;;12.02;84.35;98881.16;5038752;28;20029;-74
2020/12/23 00:24:46;;;;;;;1.83;0.73;;;;;;;12.03;84.56;98882.84;5051907;28;20433;-74
2020/12/23 00:27:11;;;;;;;1.80;0.70;;;;;;;12.00;84.46;98882.44;5033893;28;20487;-75
2020/12/23 00:29:38;;;;;;;1.20;0.70;;;;;;;11.98;84.75;98879.94;5051514;28;20025;-76
2020/12/23 00:32:04;;;;;;;1.48;0.68;;;;;;;11.96;84.63;98875.75;5051924;28;20025;-75
2020/12/23 00:34:29;;;;;;;0.88;0.70;;;;;;;11.91;84.87;98875.56;5051414;28;20080;-74
2020/12/23 00:36:56;;;;;;;2.17;0.90;;;;;;;11.97;84.54;98886.41;5055157;28;20445;-74
2020/12/23 00:39:21;;;;;;;0.88;0.70;;;;;;;11.94;84.57;98888.69;5051532;28;20021;-74
2020/12/23 00:41:47;;;;;;;0.68;0.40;;;;;;;12.00;84.55;98893.28;5066024;28;20107;-72
2020/12/23 00:44:13;;;;;;;1.05;0.70;;;;;;;11.93;84.99;98889.75;5063886;28;20019;-74
2020/12/23 00:46:38;;;;;;;0.68;0.50;;;;;;;11.88;85.05;98884.94;5051073;28;20025;-74
2020/12/23 00:49:03;;;;;;;1.38;0.50;;;;;;;11.93;84.63;98882.44;5051330;28;20028;-72
2020/12/23 00:51:28;;;;;;;0.93;0.40;;;;;;;11.94;84.58;98891.41;5061277;28;20111;-74
2020/12/23 00:53:54;;;;;;;0.93;0.45;;;;;;;11.90;84.48;98877.44;5062306;28;20029;-74
2020/12/23 00:56:19;;;;;;;0.57;0.50;;;;;;;12.05;84.32;98888.91;5061853;28;20032;-73
2020/12/23 00:58:44;;;;;;;1.67;0.70;;;;;;;11.94;83.88;98870.53;5033292;28;20044;-74
2020/12/23 01:01:10;;;;;;;0.80;0.40;;;;;;;12.06;83.82;98885.13;5056088;28;20024;-74
2020/12/23 01:03:35;;;;;;;3.03;0.50;;;;;;;12.04;83.98;98881.78;5064037;28;20483;-74
2020/12/23 01:06:06;;;;;;;4.28;0.73;;;;;;;12.08;83.71;98879.50;5050436;28;20037;-75
2020/12/23 01:08:31;;;;;;;0.43;0.43;;;;;;;12.12;83.68;98874.47;5051114;28;20032;-73
2020/12/23 01:10:56;;;;;;;0.70;0.50;;;;;;;12.04;84.04;98868.22;5059667;28;20027;-74
2020/12/23 01:13:21;;;;;;;0.68;0.50;;;;;;;11.97;84.30;98853.88;5071014;28;20016;-74
2020/12/23 01:15:47;;;;;;;0.90;0.50;;;;;;;12.03;84.06;98877.41;5061365;28;20521;-74
2020/12/23 01:18:12;;;;;;;2.25;0.40;;;;;;;12.09;84.09;98885.75;5068793;28;20066;-75
2020/12/23 01:20:37;;;;;;;0.68;0.40;;;;;;;11.99;84.33;98881.59;5054043;28;20043;-74
2020/12/23 01:23:03;;;;;;;0.82;0.43;;;;;;;11.99;84.32;98876.16;5059732;28;20031;-74
2020/12/23 01:25:29;;;;;;;0.52;0.50;;;;;;;12.04;84.03;98883.66;5053962;28;20031;-73
2020/12/23 01:27:54;;;;;;;3.67;0.50;;;;;;;12.06;84.10;98892.44;5061597;28;20025;-74
2020/12/23 01:30:20;;;;;;;1.00;0.73;;;;;;;12.06;83.98;98870.75;5050524;28;20398;-74
2020/12/23 01:32:45;;;;;;;0.65;0.40;;;;;;;12.12;83.91;98878.03;5056932;28;20029;-74
2020/12/23 01:35:10;;;;;;;0.22;0.22;;;;;;;12.09;83.64;98881.16;5043040;28;20048;-74
2020/12/23 01:37:36;;;;;;;0.80;0.45;;;;;;;12.09;83.84;98874.91;5071060;28;20771;-74
2020/12/23 01:40:02;;;;;;;1.33;0.50;;;;;;;12.14;83.75;98870.50;5052035;28;20406;-74
2020/12/23 01:42:27;;;;;;;0.70;0.70;;;;;;;12.18;83.73;98876.34;5054149;28;20048;-74
2020/12/23 01:44:53;;;;;;;1.10;0.80;;;;;;;12.11;83.71;98870.94;5051982;28;20017;-74
2020/12/23 01:47:22;;;;;;;0.63;0.60;;;;;;;12.13;83.77;98874.28;5045427;28;20074;-74
2020/12/23 01:49:49;;;;;;;1.02;0.65;;;;;;;12.10;84.24;98877.38;5050397;28;20033;-75
2020/12/23 01:52:16;;;;;;;2.10;0.60;;;;;;;12.06;83.95;98873.44;5048850;28;20037;-74
2020/12/23 01:54:41;;;;;;;0.98;0.50;;;;;;;12.03;83.67;98868.47;5050134;28;20073;-75
2020/12/23 01:57:10;;;;;;;0.70;0.40;;;;;;;12.10;84.04;98884.69;5050120;28;20033;-74
2020/12/23 01:59:37;;;;;;;1.08;0.47;;;;;;;12.16;83.55;98867.59;5050509;28;20051;-75
2020/12/23 02:02:28;;;;;;;0.70;0.47;;;;;;;12.29;83.37;98867.56;5032178;28;20024;-74
2020/12/23 02:04:53;;;;;;;0.68;0.50;;;;;;;12.33;82.75;98866.06;5040483;28;20037;-74
2020/12/23 02:07:24;;;;;;;0.98;0.52;;;;;;;12.44;82.33;98862.72;5058597;28;20017;-75
2020/12/23 02:09:51;;;;;;;0.50;0.35;;;;;;;12.47;82.06;98862.28;5053069;28;20028;-74
2020/12/23 02:12:16;;;;;;;2.05;0.60;;;;;;;12.44;82.17;98851.88;5050459;28;20037;-75
2020/12/23 02:14:42;;;;;;;0.40;0.40;;;;;;;12.45;82.09;98864.38;5023624;28;20040;-74
2020/12/23 02:17:08;;;;;;;4.05;1.27;;;;;;;12.49;82.11;98853.91;5049422;28;20043;-74
2020/12/23 02:19:33;;;;;;;0.80;0.57;;;;;;;12.48;82.29;98853.09;5028707;28;20387;-74
2020/12/23 02:22:00;;;;;;;2.25;0.43;;;;;;;12.49;82.31;98843.06;5044094;28;20513;-74
2020/12/23 02:24:26;;;;;;;0.40;0.40;;;;;;;12.47;82.67;98845.16;5062524;28;20046;-74
2020/12/23 02:26:51;;;;;;;0.75;0.50;;;;;;;12.47;82.68;98856.00;5070457;28;20173;-74
2020/12/23 02:29:17;;;;;;;2.22;0.60;;;;;;;12.38;83.62;98841.84;5057009;28;20478;-74
2020/12/23 02:31:42;;;;;;;1.10;0.40;;;;;;;12.18;84.71;98835.66;5031956;28;20017;-74
2020/12/23 02:34:08;;;;;;;4.13;0.50;;;;;;;12.16;85.03;98846.72;5064707;28;20021;-74
2020/12/23 02:36:33;;;;;;;1.08;0.60;;;;;;;12.00;85.04;98833.63;5053544;28;20079;-75
2020/12/23 02:38:58;;;;;;;0.57;0.40;;;;;;;12.01;85.44;98849.66;5057109;28;20453;-74
2020/12/23 02:41:24;;;;;;;0.80;0.50;;;;;;;11.98;85.71;98844.69;5069881;28;20020;-74
2020/12/23 02:43:49;;;;;;;1.60;0.50;;;;;;;12.00;85.39;98834.47;5065489;28;20035;-75
2020/12/23 02:46:14;;;;;;;1.05;0.60;;;;;;;11.90;85.65;98831.34;5059533;28;20422;-74
2020/12/23 02:48:39;;;;;;;0.82;0.30;;;;;;;11.92;85.93;98825.69;5031751;28;20058;-75
2020/12/23 02:51:04;;;;;;;0.60;0.60;;;;;;;11.83;85.58;98816.94;5031411;28;20032;-74
2020/12/23 02:53:30;;;;;;;0.73;0.40;;;;;;;11.88;85.69;98819.88;5050042;28;20029;-74
2020/12/23 02:55:55;;;;;;;0.40;0.30;;;;;;;11.83;85.94;98812.34;5049620;28;20029;-74
2020/12/23 02:58:20;;;;;;;1.63;0.50;;;;;;;11.81;86.12;98809.00;5031573;28;20783;-74
2020/12/23 03:00:46;;;;;;;1.05;0.68;;;;;;;11.80;86.79;98810.06;5051864;28;20029;-75
2020/12/23 03:03:11;;;;;;;0.57;0.52;;;;;;;11.72;87.35;98806.75;5053550;28;20440;-74
2020/12/23 03:05:36;;;;;;;0.40;0.38;;;;;;;11.80;87.00;98806.50;5053017;28;20542;-74
2020/12/23 03:08:01;;;;;;;0.30;0.30;;;;;;;11.85;86.84;98804.84;5052000;28;20025;-75
2020/12/23 03:10:27;;;;;;;3.70;0.50;;;;;;;11.84;87.61;98815.88;5039305;28;20024;-74
2020/12/23 03:12:52;;;;;;;1.48;0.40;;;;;;;11.90;87.71;98823.22;5053067;28;20040;-75
2020/12/23 03:15:17;;;;;;;0.88;0.50;;;;;;;11.87;87.46;98823.66;5052399;28;20075;-74
2020/12/23 03:17:42;;;;;;;0.70;0.40;;;;;;;11.86;87.73;98821.97;5053461;28;20394;-74
2020/12/23 03:20:08;;;;;;;0.47;0.40;;;;;;;11.89;87.97;98826.94;5056761;28;20033;-73
2020/12/23 03:22:33;;;;;;;0.93;0.50;;;;;;;11.70;88.50;98798.81;5035404;28;20108;-74
2020/12/23 03:24:58;;;;;;;1.35;0.30;;;;;;;11.83;87.94;98815.03;5056700;28;20021;-74
2020/12/23 03:27:23;;;;;;;1.38;0.60;;;;;;;11.83;88.18;98812.34;5052592;28;20012;-74
2020/12/23 03:29:49;;;;;;;3.00;0.50;;;;;;;11.82;88.47;98809.84;5057979;28;20017;-74
2020/12/23 03:32:14;;;;;;;1.55;0.40;;;;;;;11.75;88.30;98807.13;5064963;28;20024;-74
2020/12/23 03:34:39;;;;;;;0.82;0.20;;;;;;;11.88;88.27;98825.28;5034696;28;20784;-74
2020/12/23 03:37:05;;;;;;;1.98;0.57;;;;;;;11.76;89.12;98822.38;5018299;28;20029;-74
2020/12/23 03:39:30;;;;;;;0.68;0.38;;;;;;;11.76;89.83;98840.50;5035415;28;20024;-74
2020/12/23 03:41:55;;;;;;;1.08;0.40;;;;;;;11.68;90.38;98824.44;5052877;28;20056;-74
2020/12/23 03:44:20;;;;;;;0.90;0.60;;;;;;;11.76;90.15;98833.22;5052894;28;20029;-76
2020/12/23 03:46:46;;;;;;;1.63;0.65;;;;;;;11.70;90.57;98817.78;5052129;28;20039;-73
2020/12/23 03:49:11;;;;;;;3.72;0.40;;;;;;;11.68;90.59;98819.03;5052871;28;20029;-74
2020/12/23 03:51:36;;;;;;;2.35;0.35;;;;;;;11.62;91.19;98821.53;5052694;28;20477;-74
2020/12/23 03:54:02;;;;;;;0.47;0.47;;;;;;;11.53;91.20;98814.69;5052236;28;20054;-74
2020/12/23 03:56:27;;;;;;;0.47;0.40;;;;;;;11.54;91.83;98808.22;5052114;28;20029;-75
2020/12/23 03:58:52;;;;;;;1.13;0.63;;;;;;;11.58;91.52;98820.31;5052629;28;20103;-74
2020/12/23 04:01:17;;;;;;;0.73;0.50;;;;;;;11.53;91.93;98811.97;5052229;28;20033;-74
2020/12/23 04:03:43;;;;;;;0.55;0.55;;;;;;;11.45;91.71;98808.63;5060996;28;20440;-74
2020/12/23 04:06:08;;;;;;;1.27;0.40;;;;;;;11.47;91.83;98815.50;5059604;28;20032;-74
2020/12/23 04:08:33;;;;;;;0.82;0.50;;;;;;;11.45;92.08;98803.19;5052039;28;20526;-75
2020/12/23 04:10:58;;;;;;;0.40;0.40;;;;;;;11.44;92.01;98805.09;5051882;28;20075;-74
2020/12/23 04:13:24;;;;;;;0.30;0.30;;;;;;;11.49;92.06;98810.72;5036225;28;20028;-74
2020/12/23 04:15:49;;;;;;;0.75;0.50;;;;;;;11.45;91.48;98798.63;5066519;28;20049;-74
2020/12/23 04:18:14;;;;;;;0.70;0.60;;;;;;;11.52;91.54;98804.03;5065498;28;20039;-74
2020/12/23 04:20:41;;;;;;;0.90;0.70;;;;;;;11.55;91.42;98804.47;5053734;28;20028;-75
2020/12/23 04:23:08;;;;;;;0.50;0.30;;;;;;;11.59;91.33;98794.88;5051248;28;20113;-74
2020/12/23 04:25:33;;;;;;;1.85;0.40;;;;;;;11.46;91.66;98789.47;5056482;28;20052;-73
2020/12/23 04:27:58;;;;;;;0.73;0.63;;;;;;;11.61;92.06;98792.78;5072433;28;20075;-74
2020/12/23 04:30:23;;;;;;;0.50;0.40;;;;;;;11.53;91.84;98784.88;5053753;28;20020;-76
2020/12/23 04:32:49;;;;;;;1.85;0.50;;;;;;;11.53;91.90;98787.59;5049872;28;20028;-76
2020/12/23 04:35:14;;;;;;;1.05;0.60;;;;;;;11.46;91.83;98789.47;5049544;28;20080;-75
2020/12/23 04:37:39;;;;;;;1.50;0.80;;;;;;;11.46;92.31;98786.75;5055801;28;20028;-74
2020/12/23 04:40:05;;;;;;;1.67;0.60;;;;;;;11.41;92.31;98779.25;5050608;28;20024;-74
2020/12/23 04:42:32;;;;;;;0.93;0.68;;;;;;;11.37;92.44;98775.31;5066950;28;20455;-74
2020/12/23 04:44:58;;;;;;;1.27;0.50;;;;;;;11.33;92.55;98773.22;5069130;28;20553;-75
2020/12/23 04:47:25;;;;;;;0.95;0.63;;;;;;;11.47;92.39;98769.44;5050575;28;20044;-74
2020/12/23 04:49:55;;;;;;;1.38;0.65;;;;;;;11.41;92.52;98770.28;5052735;28;20028;-74
2020/12/23 04:52:23;;;;;;;;;;;;;;;11.32;92.90;98766.97;5066833;28;20039;-74
2020/12/23 04:54:49;;;;;;;0.70;0.70;;;;;;;11.28;92.90;98762.16;5069721;28;19912;-79
2020/12/23 04:57:17;;;;;;;3.97;1.13;;;;;;;11.26;93.08;98756.13;5053345;28;20033;-74
2020/12/23 04:59:43;;;;;;;2.22;1.02;;;;;;;11.26;93.29;98761.53;5067038;28;20102;-76
2020/12/23 05:02:08;;;;;;;1.33;0.95;;;;;;;11.24;93.01;98769.91;5055101;28;20069;-76
2020/12/23 05:04:34;;;;;;;2.78;0.75;;;;;;;11.23;93.36;98770.09;5050520;28;20467;-75
2020/12/23 05:07:05;;;;;;;1.10;0.93;;;;;;;11.14;93.15;98780.31;5053799;28;20032;-75
2020/12/23 05:09:30;;;;;;;2.65;1.20;;;;;;;11.11;93.62;98780.72;5036010;28;20060;-74
2020/12/23 05:11:58;;;;;;;1.38;0.93;;;;;;;11.14;93.65;98775.72;5046485;28;20060;-74
2020/12/23 05:14:24;;;;;;;2.63;0.93;;;;;;;11.09;93.40;98764.66;5031522;28;20112;-75
2020/12/23 05:16:52;;;;;;;2.35;0.90;;;;;;;11.24;93.33;98752.78;5051135;28;20025;-74
2020/12/23 05:19:18;;;;;;;1.45;0.82;;;;;;;11.29;92.94;98748.44;5049222;28;20445;-75
2020/12/23 05:21:44;;;;;;;2.58;1.20;;;;;;;11.33;92.97;98755.09;5040380;28;20025;-73
2020/12/23 05:24:10;;;;;;;1.38;0.98;;;;;;;11.29;92.91;98755.69;5060517;28;20039;-73
2020/12/23 05:26:39;;;;;;;1.10;0.80;;;;;;;11.32;92.93;98752.59;5055061;28;20041;-74
2020/12/23 05:29:04;;;;;;;1.92;1.48;;;;;;;11.23;93.04;98751.13;5049417;28;20021;-74
2020/12/23 05:31:32;;;;;;;2.50;1.55;;;;;;;11.21;93.36;98747.78;5050843;28;20033;-76
2020/12/23 05:33:58;;;;;;;1.73;1.00;;;;;;;11.16;93.38;98741.16;5057472;28;20490;-73
2020/12/23 05:36:25;;;;;;;2.72;1.20;;;;;;;11.16;93.60;98757.38;5030993;28;20071;-74
2020/12/23 05:38:51;;;;;;;5.30;1.02;;;;;;;11.27;93.49;98747.81;5068786;28;20032;-74
2020/12/23 05:41:17;;;;;;;1.92;1.13;;;;;;;11.21;93.60;98761.34;5057173;28;20024;-74
2020/12/23 05:43:42;;;;;;;2.03;1.00;;;;;;;11.11;93.60;98749.06;5051340;28;20501;-73
2020/12/23 05:46:11;;;;;;;1.90;1.13;;;;;;;11.05;93.57;98752.56;5066593;28;20040;-73
2020/12/23 05:48:38;;;;;;;1.63;1.00;;;;;;;11.25;93.92;98743.63;5041041;28;20036;-75
2020/12/23 05:51:05;;;;;;;1.90;1.20;;;;;;;11.16;94.13;98743.00;5031542;28;20036;-75
2020/12/23 05:53:34;;;;;;;1.15;1.00;;;;;;;11.08;94.18;98733.22;5044694;28;20086;-74
2020/12/23 05:56:00;;;;;;;1.45;0.90;;;;;;;11.12;94.08;98744.47;5045833;28;20036;-75
2020/12/23 05:58:28;;;;;;;2.13;1.05;;;;;;;11.18;93.87;98732.78;5048816;28;20021;-76
2020/12/23 06:00:56;;;;;;;2.90;1.10;;;;;;;11.13;94.02;98738.00;5046194;28;20029;-76
2020/12/23 06:03:51;;;;;;;1.55;1.02;;;;;;;11.22;93.83;98744.06;5026526;28;20026;-76
2020/12/23 06:06:27;;;;;;;4.60;1.45;;;;;;;11.25;93.72;98732.81;5032638;28;20108;-77
2020/12/23 06:09:02;;;;;;;1.70;1.40;;;;;;;11.14;93.63;98728.84;5050128;28;20039;-75
2020/12/23 06:11:40;;;;;;;2.25;1.63;;;;;;;11.13;93.87;98714.50;5047866;28;20033;-77
2020/12/23 06:14:23;;;;;;;1.80;1.40;;;;;;;11.00;93.92;98709.06;5048008;28;20060;-76
2020/12/23 06:16:58;;;;;;;2.42;1.95;;;;;;;11.13;94.02;98719.91;5047993;28;20017;-76
2020/12/23 06:19:38;;;;;;;2.45;1.60;;;;;;;10.91;94.02;98691.38;5032709;28;20027;-77
2020/12/23 06:22:05;;;;;;;3.63;1.33;;;;;;;10.97;94.24;98709.47;5033121;28;20025;-75
2020/12/23 06:24:31;;;;;;;2.80;1.35;;;;;;;10.97;94.24;98704.06;5030531;28;20075;-77
2020/12/23 06:26:58;;;;;;;7.18;2.33;;;;;;;10.99;94.42;98695.75;5019666;28;20445;-77
2020/12/23 06:29:28;;;;;;;2.85;2.28;;;;;;;11.04;94.37;98704.91;5043634;28;20415;-76
2020/12/23 06:31:59;;;;;;;2.97;2.10;;;;;;;10.90;94.63;98692.41;5033700;28;20128;-75
2020/12/23 06:34:30;;;;;;;3.70;1.83;;;;;;;11.05;94.42;98690.31;5048427;28;20021;-73
2020/12/23 06:36:56;;;;;;;2.80;1.45;;;;;;;11.02;94.23;98698.84;5049513;28;20041;-72
2020/12/23 06:39:24;;;;;;;1.90;1.50;;;;;;;11.19;94.53;98691.16;5044015;28;20017;-74
2020/12/23 06:41:59;;;;;;;2.65;1.70;;;;;;;11.08;94.09;98672.81;5036815;28;20036;-74
2020/12/23 06:44:25;;;;;;;1.48;1.10;;;;;;;11.12;93.95;98679.50;5024058;28;20028;-74
2020/12/23 06:46:59;;;;;;;5.07;1.30;;;;;;;11.22;93.82;98688.03;5029063;28;20368;-73
2020/12/23 06:50:06;;;;;;;1.10;0.95;;;;;;;11.19;93.74;98689.28;5042682;28;20029;-76
2020/12/23 06:52:34;;;;;;;3.45;1.00;;;;;;;11.13;93.50;98681.13;5042185;28;20106;-74
2020/12/23 06:55:05;;;;;;;3.85;1.38;;;;;;;11.16;93.32;98687.00;5027472;28;20439;-72
2020/12/23 06:57:37;;;;;;;4.75;3.42;;;;;;;11.21;92.71;98677.38;5042770;28;20108;-73
2020/12/23 07:00:32;;;;;;;5.85;2.58;;;;;;;11.02;93.13;98690.72;5044001;28;20091;-73
2020/12/23 07:03:05;;;;;;;4.10;2.75;;;;;;;10.97;93.51;98693.22;5038691;28;20087;-73
2020/12/23 07:05:37;;;;;;;7.72;4.75;;;;;;;10.97;93.45;98683.22;5036746;28;20819;-72
2020/12/23 07:08:07;;;;;;;8.50;5.13;;;;;;;10.97;93.49;98688.66;5039856;28;20470;-73
2020/12/23 07:10:41;;;;;;;9.55;6.70;;;;;;;11.01;93.61;98680.97;5049623;28;20418;-73
2020/12/23 07:13:11;;;;;;;11.23;7.22;;;;;;;11.12;93.09;98668.66;5052133;28;20474;-73
2020/12/23 07:15:43;;;;;;;;;;;;;;;11.03;92.96;98687.00;5036905;28;20029;-72
2020/12/23 07:18:12;;;;;;;5.97;3.45;;;;;;;11.04;93.26;98691.38;5047428;28;19916;-73
2020/12/23 07:20:46;;;;;;;5.20;2.85;;;;;;;11.01;93.26;98694.50;5030613;28;20033;-73
2020/12/23 07:23:14;;;;;;;3.85;2.45;;;;;;;11.05;92.89;98694.91;5046901;28;20028;-73
2020/12/23 07:25:51;;;;;;;6.03;2.40;;;;;;;11.12;92.88;98674.91;5030693;28;20025;-73
2020/12/23 07:28:19;;;;;;;2.88;1.90;;;;;;;11.24;91.77;98685.94;5031392;28;20029;-73
2020/12/23 07:30:45;;;;;;;3.33;2.42;;;;;;;11.14;91.83;98691.78;5049845;28;20029;-72
2020/12/23 07:33:21;;;;;;;7.80;3.60;;;;;;;11.15;91.82;98685.31;5031305;28;20033;-72
2020/12/23 07:35:49;;;;;;;10.48;4.30;;;;;;;11.02;91.58;98676.38;5038813;28;20518;-76
2020/12/23 07:38:15;;;;;;;6.97;4.22;;;;;;;11.04;91.43;98696.78;5034027;28;20020;-75
2020/12/23 07:40:42;;;;;;;4.32;3.45;;;;;;;11.00;91.07;98681.97;5052126;28;20021;-76
2020/12/23 07:43:08;;;;;;;3.22;2.35;;;;;;;11.13;90.83;98682.00;5055890;28;20417;-74
2020/12/23 07:45:35;;;;;;;2.55;1.52;;;;;;;11.25;89.06;98695.72;5032448;28;20123;-77
2020/12/23 07:48:04;;;;;;;2.05;1.30;;;;;;;11.19;88.52;98666.78;5052815;28;20025;-75
2020/12/23 07:50:33;;;;;;;1.63;1.20;;;;;;;11.28;87.96;98667.38;5038242;28;20153;-74
2020/12/23 07:53:10;;;;;;;2.00;1.45;;;;;;;11.43;87.75;98676.09;5050476;28;20041;-77
2020/12/23 07:55:36;;;;;;;2.10;1.58;;;;;;;11.43;87.58;98672.56;5039778;28;20033;-74
2020/12/23 07:58:02;;;;;;;2.20;1.45;;;;;;;11.46;87.27;98680.28;5031577;28;20057;-75
2020/12/23 08:00:28;;;;;;;1.98;1.58;;;;;;;11.51;87.58;98691.31;5032069;28;20112;-75
2020/12/23 08:02:54;;;;;;;1.95;1.27;;;;;;;11.45;86.72;98687.56;5048016;28;20068;-75
2020/12/23 08:05:19;;;;;;;3.22;1.58;;;;;;;11.56;87.05;98700.44;5034566;28;20049;-72
2020/12/23 08:07:45;;;;;;;2.55;1.60;;;;;;;11.57;87.10;98693.16;5052672;28;20024;-73
2020/12/23 08:10:18;;;;;;;2.22;1.33;;;;;;;11.54;87.36;98691.69;5049295;28;20025;-71
2020/12/23 08:12:58;;;;;;;4.15;1.33;;;;;;;11.62;87.61;98680.63;5037566;28;20669;-74
2020/12/23 08:15:26;;;;;;;2.15;1.15;;;;;;;11.67;86.29;98692.72;5031346;28;20040;-72
2020/12/23 08:18:12;;;;;;;2.22;1.10;;;;;;;11.71;86.52;98691.22;5030393;28;20424;-71
2020/12/23 08:20:37;;;;;;;2.05;1.42;;;;;;;11.76;86.53;98694.13;5031463;28;20152;-74
2020/12/23 08:23:03;;;;;;;9.98;4.13;;;;;;;11.75;86.50;98679.75;5033311;28;20150;-74
2020/12/23 08:25:30;;;;;;;10.30;4.22;;;;;;;11.72;86.68;98663.94;5046958;28;20039;-75
2020/12/23 08:27:57;;;;;;;13.15;5.15;;;;;;;11.94;86.15;98686.16;5045923;28;20035;-72
2020/12/23 08:30:27;;;;;;;13.60;5.13;;;;;;;12.02;85.18;98690.53;5049026;28;20035;-72
2020/12/23 08:33:03;;;;;;;6.18;3.25;;;;;;;12.15;84.31;98695.88;5037130;28;20024;-72
2020/12/23 08:35:36;;;;;;;4.60;2.00;;;;;;;12.11;84.43;98699.25;5032031;28;20029;-72
2020/12/23 08:38:02;;;;;;;4.28;1.90;;;;;;;12.07;85.08;98702.38;5043322;28;20029;-72
2020/12/23 08:40:27;;;;;;;5.50;2.30;;;;;;;12.00;85.33;98708.91;5040733;28;20067;-72
2020/12/23 08:42:58;;;;;;;4.75;2.15;;;;;;;12.00;85.45;98708.91;5032585;28;20029;-72
2020/12/23 08:45:29;;;;;;;4.10;1.73;;;;;;;12.05;85.25;98695.50;5036523;28;20040;-72
2020/12/23 08:47:55;;;;;;;3.28;1.80;;;;;;;12.04;84.12;98696.56;5043435;28;20071;-72
2020/12/23 08:50:25;;;;;;;8.00;1.60;;;;;;;12.06;84.16;98689.88;5032029;28;20538;-73
2020/12/23 08:52:52;;;;;;;1.77;1.25;;;;;;;12.15;84.04;98684.19;5049043;28;20041;-76
2020/12/23 08:55:26;;;;;;;7.93;1.83;;;;;;;12.23;84.05;98692.09;5032601;28;20147;-77
2020/12/23 08:58:06;;;;;;;2.63;1.50;;;;;;;12.20;83.47;98681.69;5033702;28;20497;-79
2020/12/23 09:00:32;;;;;;;3.17;1.40;;;;;;;12.25;82.84;98681.84;5064708;28;20514;-77
2020/12/23 09:02:58;;;;;;;2.10;1.30;;;;;;;12.35;82.61;98687.66;5032684;28;20025;-76
2020/12/23 09:05:27;;;;;;;3.28;1.75;;;;;;;12.39;82.64;98682.59;5032871;28;20032;-78
2020/12/23 09:08:11;;;;;;;5.28;1.98;;;;;;;12.38;82.39;98676.34;5050440;28;20527;-77
2020/12/23 09:10:38;;;;;;;8.63;2.72;;;;;;;12.40;82.21;98668.84;5016978;28;20379;-77
2020/12/23 09:13:08;;;;;;;3.67;2.67;;;;;;;12.42;81.93;98674.88;5048890;28;20439;-77
2020/12/23 09:15:35;;;;;;;4.72;2.90;;;;;;;12.56;81.73;98688.34;5047108;28;20433;-77
2020/12/23 09:18:11;;;;;;;3.35;2.10;;;;;;;12.48;81.51;98670.44;5032875;28;20024;-77
2020/12/23 09:20:37;;;;;;;3.47;1.85;;;;;;;12.55;81.14;98667.69;5030931;28;20029;-78
2020/12/23 09:23:08;;;;;;;4.25;2.08;;;;;;;12.57;81.24;98674.56;5032907;28;20148;-77
2020/12/23 09:25:34;;;;;;;2.80;1.90;;;;;;;12.65;81.03;98668.88;5041052;28;20103;-78
2020/12/23 09:28:14;;;;;;;3.63;2.63;;;;;;;12.58;80.61;98656.41;5021744;28;20108;-76
2020/12/23 09:30:45;;;;;;;3.50;2.10;;;;;;;12.79;80.50;98671.50;5050488;28;20573;-77
2020/12/23 09:33:13;;;;;;;5.78;3.03;;;;;;;12.79;80.31;98671.50;5049788;28;20055;-77
2020/12/23 09:35:41;;;;;;;5.20;3.20;;;;;;;12.87;80.26;98672.03;5048233;28;20025;-76
2020/12/23 09:38:11;;;;;;;5.95;3.40;;;;;;;12.80;80.35;98654.97;5050007;28;20039;-76
2020/12/23 09:40:39;;;;;;;6.15;3.03;;;;;;;12.98;80.05;98672.38;5048515;28;20101;-75
2020/12/23 09:43:10;;;;;;;5.10;2.78;;;;;;;12.96;79.67;98663.63;5031430;28;20112;-77
2020/12/23 09:45:35;;;;;;;5.75;2.30;;;;;;;12.89;79.57;98653.66;5045593;28;20040;-77
2020/12/23 09:48:01;;;;;;;4.28;2.67;;;;;;;13.11;79.13;98672.25;5049253;28;20029;-78
2020/12/23 09:50:26;;;;;;;8.75;2.92;;;;;;;13.03;79.67;98665.22;5030779;28;20025;-78
2020/12/23 09:52:51;;;;;;;5.32;2.22;;;;;;;13.02;79.27;98646.41;5029812;28;20021;-77
2020/12/23 09:55:16;;;;;;;5.05;2.60;;;;;;;13.01;79.53;98656.47;5045707;28;20065;-78
2020/12/23 09:57:42;;;;;;;3.33;1.75;;;;;;;13.11;79.95;98661.41;5029768;28;20032;-70
2020/12/23 10:00:08;;;;;;;5.00;1.60;;;;;;;13.09;79.92;98666.22;5033606;28;20112;-73
2020/12/23 10:02:33;;;;;;;2.72;1.73;;;;;;;13.13;79.40;98651.16;5038439;28;20124;-72
2020/12/23 10:04:58;;;;;;;2.75;1.77;;;;;;;13.23;78.77;98645.19;5040035;28;20044;-73
2020/12/23 10:07:24;;;;;;;4.20;2.17;;;;;;;13.40;78.89;98649.00;5033275;28;20496;-71
2020/12/23 10:09:49;;;;;;;3.92;2.33;;;;;;;13.28;78.56;98646.22;5047372;28;20431;-77
2020/12/23 10:12:14;;;;;;;7.00;2.97;;;;;;;13.27;78.00;98633.69;5049891;28;20098;-78
2020/12/23 10:14:40;;;;;;;5.53;2.50;;;;;;;13.19;78.64;98631.22;5031980;28;20035;-75
2020/12/23 10:17:05;;;;;;;5.63;3.50;;;;;;;13.12;77.97;98614.97;5032259;28;20032;-74
2020/12/23 10:19:30;;;;;;;5.38;3.35;;;;;;;13.23;78.32;98627.00;5049309;28;20119;-74
2020/12/23 10:21:55;;;;;;;5.95;3.50;;;;;;;13.24;77.68;98611.53;5045974;28;20055;-76
2020/12/23 10:24:21;;;;;;;5.28;4.03;;;;;;;13.29;77.79;98614.44;5048302;28;20064;-71
2020/12/23 10:26:51;;;;;;;7.32;4.75;;;;;;;13.32;77.48;98608.56;5047301;28;20036;-73
2020/12/23 10:29:17;;;;;;;5.45;3.70;;;;;;;13.29;78.17;98622.59;5036418;28;20029;-72
2020/12/23 10:31:43;;;;;;;4.75;2.10;;;;;;;13.12;77.99;98608.72;5042217;28;20037;-69
2020/12/23 10:34:08;;;;;;;3.25;2.00;;;;;;;13.17;78.24;98614.31;5026663;28;20033;-72
2020/12/23 10:36:34;;;;;;;1.98;1.10;;;;;;;13.12;78.33;98595.97;5033604;28;20113;-76
2020/12/23 10:39:02;;;;;;;3.30;1.60;;;;;;;13.10;77.94;98598.09;5041444;28;20028;-76
2020/12/23 10:41:27;;;;;;;4.85;1.80;;;;;;;13.07;78.02;98587.69;5048894;28;20041;-73
2020/12/23 10:43:52;;;;;;;3.17;1.52;;;;;;;13.12;78.08;98585.09;5047501;28;20053;-73
2020/12/23 10:46:18;;;;;;;2.33;1.40;;;;;;;13.19;77.52;98595.91;5046799;28;20039;-74
2020/12/23 10:48:43;;;;;;;2.20;1.40;;;;;;;13.20;77.33;98578.53;5063221;28;20539;-72
2020/12/23 10:51:08;;;;;;;2.83;1.27;;;;;;;13.20;77.66;98577.72;5048592;28;20083;-74
2020/12/23 10:53:35;;;;;;;2.85;1.20;;;;;;;13.32;76.93;98592.25;5048089;28;20111;-75
2020/12/23 10:56:00;;;;;;;1.98;0.95;;;;;;;13.31;77.13;98574.31;5048317;28;20025;-74
2020/12/23 10:58:26;;;;;;;4.28;1.52;;;;;;;13.36;77.32;98555.41;5048755;28;20029;-69
2020/12/23 11:00:51;;;;;;;3.88;1.40;;;;;;;13.45;76.77;98566.81;5053835;28;20514;-69
2020/12/23 11:03:17;;;;;;;4.07;1.33;;;;;;;13.36;77.13;98558.97;5047329;28;20036;-69
2020/12/23 11:05:42;;;;;;;2.88;1.08;;;;;;;13.32;77.28;98560.47;5048580;28;20037;-69
2020/12/23 11:08:07;;;;;;;3.45;1.20;;;;;;;13.26;78.13;98555.09;5045744;28;20116;-69
2020/12/23 11:10:33;;;;;;;1.75;1.17;;;;;;;13.16;77.60;98545.56;5047721;28;20024;-68
2020/12/23 11:12:58;;;;;;;3.25;1.13;;;;;;;13.11;78.10;98552.75;5053151;28;20124;-69
2020/12/23 11:15:23;;;;;;;2.35;1.15;;;;;;;13.09;78.18;98538.56;5048049;28;20040;-69
2020/12/23 11:17:49;;;;;;;2.58;1.52;;;;;;;13.12;78.51;98536.22;5058140;28;20055;-70
2020/12/23 11:20:15;;;;;;;4.00;2.00;;;;;;;13.20;77.87;98536.97;5048406;28;20033;-69
2020/12/23 11:22:40;;;;;;;3.40;1.42;;;;;;;13.24;77.80;98524.59;5047072;28;20024;-69
2020/12/23 11:25:06;;;;;;;3.92;1.30;;;;;;;13.25;77.70;98520.81;5044529;28;20090;-69
2020/12/23 11:27:32;;;;;;;4.20;1.20;;;;;;;13.31;77.23;98523.50;5050473;28;20036;-69
2020/12/23 11:29:58;;;;;;;2.40;1.08;;;;;;;13.32;77.28;98506.13;5050708;28;20121;-68
2020/12/23 11:32:23;;;;;;;1.35;0.80;;;;;;;13.34;76.37;98514.88;5050471;28;20116;-69
2020/12/23 11:34:48;;;;;;;2.22;0.98;;;;;;;13.37;76.86;98522.56;5052699;28;20678;-68